sensor_id;sensor_type;location;lat;lon;timestamp;P1;durP1;ratioP1;P2;durP2;ratioP2
37367;SDS011;23240;43.210;27.910;2022-09-17T00:00:43;30.02;;;14.55;;
37367;SDS011;23240;43.210;27.910;2022-09-17T00:03:09;31.33;;;14.27;;
37367;SDS011;23240;43.210;27.910;2022-09-17T00:05:35;40.00;;;16.33;;
37367;SDS011;23240;43.210;27.910;2022-09-17T00:08:04;31.08;;;15.05;;
37367;SDS011;23240;43.210;27.910;2022-09-17T00:10:31;33.95;;;15.02;;
37367;SDS011;23240;43.210;27.910;2022-09-17T00:12:57;33.70;;;15.38;;
37367;SDS011;23240;43.210;27.910;2022-09-17T00:15:23;32.80;;;15.35;;
37367;SDS011;23240;43.210;27.910;2022-09-17T00:17:55;34.22;;;15.85;;
37367;SDS011;23240;43.210;27.910;2022-09-17T00:20:26;30.33;;;14.48;;
37367;SDS011;23240;43.210;27.910;2022-09-17T00:22:52;37.83;;;16.20;;
37367;SDS011;23240;43.210;27.910;2022-09-17T00:25:18;33.17;;;15.27;;
37367;SDS011;23240;43.210;27.910;2022-09-17T00:27:44;34.15;;;15.50;;
37367;SDS011;23240;43.210;27.910;2022-09-17T00:30:11;29.92;;;15.32;;
37367;SDS011;23240;43.210;27.910;2022-09-17T00:32:37;33.42;;;14.80;;
37367;SDS011;23240;43.210;27.910;2022-09-17T00:35:03;35.95;;;15.07;;
37367;SDS011;23240;43.210;27.910;2022-09-17T00:37:29;36.65;;;15.32;;
37367;SDS011;23240;43.210;27.910;2022-09-17T00:39:54;31.40;;;14.18;;
37367;SDS011;23240;43.210;27.910;2022-09-17T00:42:20;37.03;;;15.27;;
37367;SDS011;23240;43.210;27.910;2022-09-17T00:44:50;31.10;;;15.52;;
37367;SDS011;23240;43.210;27.910;2022-09-17T00:47:19;35.00;;;16.35;;
37367;SDS011;23240;43.210;27.910;2022-09-17T00:49:56;34.55;;;16.88;;
37367;SDS011;23240;43.210;27.910;2022-09-17T00:52:26;44.30;;;18.58;;
37367;SDS011;23240;43.210;27.910;2022-09-17T00:57:57;45.53;;;18.40;;
37367;SDS011;23240;43.210;27.910;2022-09-17T01:00:26;43.78;;;20.08;;
37367;SDS011;23240;43.210;27.910;2022-09-17T01:02:53;38.83;;;18.55;;
37367;SDS011;23240;43.210;27.910;2022-09-17T01:05:26;39.88;;;19.15;;
37367;SDS011;23240;43.210;27.910;2022-09-17T01:08:14;46.85;;;22.55;;
37367;SDS011;23240;43.210;27.910;2022-09-17T01:16:18;45.78;;;21.88;;
37367;SDS011;23240;43.210;27.910;2022-09-17T01:33:41;46.83;;;19.52;;
37367;SDS011;23240;43.210;27.910;2022-09-17T01:47:28;36.63;;;16.65;;
37367;SDS011;23240;43.210;27.910;2022-09-17T01:52:32;34.58;;;15.73;;
37367;SDS011;23240;43.210;27.910;2022-09-17T01:55:02;32.28;;;15.35;;
37367;SDS011;23240;43.210;27.910;2022-09-17T01:57:39;37.17;;;16.27;;
37367;SDS011;23240;43.210;27.910;2022-09-17T02:00:11;37.15;;;16.88;;
37367;SDS011;23240;43.210;27.910;2022-09-17T02:02:39;37.20;;;15.57;;
37367;SDS011;23240;43.210;27.910;2022-09-17T02:05:20;37.30;;;16.33;;
37367;SDS011;23240;43.210;27.910;2022-09-17T02:07:53;34.35;;;15.93;;
37367;SDS011;23240;43.210;27.910;2022-09-17T02:10:26;38.88;;;16.02;;
37367;SDS011;23240;43.210;27.910;2022-09-17T02:12:56;39.45;;;18.30;;
37367;SDS011;23240;43.210;27.910;2022-09-17T02:15:30;43.97;;;21.27;;
37367;SDS011;23240;43.210;27.910;2022-09-17T02:18:18;44.72;;;20.52;;
37367;SDS011;23240;43.210;27.910;2022-09-17T02:20:56;47.30;;;22.20;;
37367;SDS011;23240;43.210;27.910;2022-09-17T02:23:34;44.08;;;22.17;;
37367;SDS011;23240;43.210;27.910;2022-09-17T02:26:06;48.58;;;21.90;;
37367;SDS011;23240;43.210;27.910;2022-09-17T02:28:39;43.38;;;20.48;;
37367;SDS011;23240;43.210;27.910;2022-09-17T02:33:35;45.30;;;22.23;;
37367;SDS011;23240;43.210;27.910;2022-09-17T02:36:04;49.17;;;22.48;;
37367;SDS011;23240;43.210;27.910;2022-09-17T02:38:30;46.95;;;22.45;;
37367;SDS011;23240;43.210;27.910;2022-09-17T02:44:04;46.65;;;22.80;;
37367;SDS011;23240;43.210;27.910;2022-09-17T02:46:37;50.10;;;22.15;;
37367;SDS011;23240;43.210;27.910;2022-09-17T02:54:48;46.47;;;21.40;;
37367;SDS011;23240;43.210;27.910;2022-09-17T03:00:24;42.47;;;21.20;;
37367;SDS011;23240;43.210;27.910;2022-09-17T03:02:55;45.22;;;21.45;;
37367;SDS011;23240;43.210;27.910;2022-09-17T03:05:22;42.63;;;20.65;;
37367;SDS011;23240;43.210;27.910;2022-09-17T03:07:49;48.95;;;21.25;;
37367;SDS011;23240;43.210;27.910;2022-09-17T03:10:15;40.63;;;21.27;;
37367;SDS011;23240;43.210;27.910;2022-09-17T03:12:41;43.58;;;20.73;;
37367;SDS011;23240;43.210;27.910;2022-09-17T03:15:07;46.17;;;20.85;;
37367;SDS011;23240;43.210;27.910;2022-09-17T03:17:33;43.00;;;21.70;;
37367;SDS011;23240;43.210;27.910;2022-09-17T03:19:58;39.50;;;20.65;;
37367;SDS011;23240;43.210;27.910;2022-09-17T03:22:24;40.60;;;22.17;;
37367;SDS011;23240;43.210;27.910;2022-09-17T03:24:50;43.13;;;21.88;;
37367;SDS011;23240;43.210;27.910;2022-09-17T03:27:15;47.75;;;24.48;;
37367;SDS011;23240;43.210;27.910;2022-09-17T03:29:40;50.80;;;24.33;;
37367;SDS011;23240;43.210;27.910;2022-09-17T03:32:06;48.25;;;24.52;;
37367;SDS011;23240;43.210;27.910;2022-09-17T03:34:32;55.25;;;26.15;;
37367;SDS011;23240;43.210;27.910;2022-09-17T03:36:58;54.70;;;28.40;;
37367;SDS011;23240;43.210;27.910;2022-09-17T03:39:23;57.13;;;30.60;;
37367;SDS011;23240;43.210;27.910;2022-09-17T03:41:49;69.00;;;32.47;;
37367;SDS011;23240;43.210;27.910;2022-09-17T03:44:15;64.80;;;32.63;;
37367;SDS011;23240;43.210;27.910;2022-09-17T03:46:42;60.28;;;34.90;;
37367;SDS011;23240;43.210;27.910;2022-09-17T03:49:08;69.95;;;38.47;;
37367;SDS011;23240;43.210;27.910;2022-09-17T03:51:33;73.95;;;41.05;;
37367;SDS011;23240;43.210;27.910;2022-09-17T03:53:59;73.88;;;41.17;;
37367;SDS011;23240;43.210;27.910;2022-09-17T03:56:24;74.00;;;40.90;;
37367;SDS011;23240;43.210;27.910;2022-09-17T03:58:50;70.50;;;40.67;;
37367;SDS011;23240;43.210;27.910;2022-09-17T04:01:16;64.80;;;38.47;;
37367;SDS011;23240;43.210;27.910;2022-09-17T04:03:42;65.85;;;37.17;;
37367;SDS011;23240;43.210;27.910;2022-09-17T04:06:09;63.65;;;33.00;;
37367;SDS011;23240;43.210;27.910;2022-09-17T04:08:34;65.28;;;33.60;;
37367;SDS011;23240;43.210;27.910;2022-09-17T04:11:00;64.55;;;31.25;;
37367;SDS011;23240;43.210;27.910;2022-09-17T04:13:26;57.70;;;32.65;;
37367;SDS011;23240;43.210;27.910;2022-09-17T04:15:51;61.65;;;30.92;;
37367;SDS011;23240;43.210;27.910;2022-09-17T04:18:17;58.78;;;29.35;;
37367;SDS011;23240;43.210;27.910;2022-09-17T04:20:42;54.88;;;27.20;;
37367;SDS011;23240;43.210;27.910;2022-09-17T04:23:09;56.63;;;26.95;;
37367;SDS011;23240;43.210;27.910;2022-09-17T04:25:36;58.10;;;27.25;;
37367;SDS011;23240;43.210;27.910;2022-09-17T04:28:01;49.45;;;25.63;;
37367;SDS011;23240;43.210;27.910;2022-09-17T04:30:27;57.80;;;25.90;;
37367;SDS011;23240;43.210;27.910;2022-09-17T04:32:53;53.80;;;24.70;;
37367;SDS011;23240;43.210;27.910;2022-09-17T04:35:18;53.88;;;25.10;;
37367;SDS011;23240;43.210;27.910;2022-09-17T04:37:50;57.85;;;28.17;;
37367;SDS011;23240;43.210;27.910;2022-09-17T04:40:16;63.17;;;34.35;;
37367;SDS011;23240;43.210;27.910;2022-09-17T04:42:42;67.15;;;37.65;;
37367;SDS011;23240;43.210;27.910;2022-09-17T04:45:07;81.55;;;44.90;;
37367;SDS011;23240;43.210;27.910;2022-09-17T04:47:33;92.60;;;51.92;;
37367;SDS011;23240;43.210;27.910;2022-09-17T04:50:02;90.57;;;52.42;;
37367;SDS011;23240;43.210;27.910;2022-09-17T04:52:27;95.57;;;53.53;;
37367;SDS011;23240;43.210;27.910;2022-09-17T04:54:53;85.80;;;51.63;;
37367;SDS011;23240;43.210;27.910;2022-09-17T04:57:18;80.28;;;48.05;;
37367;SDS011;23240;43.210;27.910;2022-09-17T04:59:43;77.88;;;46.58;;
37367;SDS011;23240;43.210;27.910;2022-09-17T05:02:09;75.57;;;44.67;;
37367;SDS011;23240;43.210;27.910;2022-09-17T05:04:34;71.20;;;42.38;;
37367;SDS011;23240;43.210;27.910;2022-09-17T05:07:00;73.63;;;42.15;;
37367;SDS011;23240;43.210;27.910;2022-09-17T05:09:26;68.10;;;39.05;;
37367;SDS011;23240;43.210;27.910;2022-09-17T05:11:52;69.32;;;36.97;;
37367;SDS011;23240;43.210;27.910;2022-09-17T05:14:17;66.07;;;36.05;;
37367;SDS011;23240;43.210;27.910;2022-09-17T05:16:43;65.03;;;35.67;;
37367;SDS011;23240;43.210;27.910;2022-09-17T05:19:08;65.18;;;35.72;;
37367;SDS011;23240;43.210;27.910;2022-09-17T05:21:33;65.43;;;36.35;;
37367;SDS011;23240;43.210;27.910;2022-09-17T05:23:59;63.50;;;35.78;;
37367;SDS011;23240;43.210;27.910;2022-09-17T05:26:25;62.33;;;36.47;;
37367;SDS011;23240;43.210;27.910;2022-09-17T05:28:51;66.90;;;37.22;;
37367;SDS011;23240;43.210;27.910;2022-09-17T05:31:16;67.25;;;35.88;;
37367;SDS011;23240;43.210;27.910;2022-09-17T05:33:42;57.78;;;34.40;;
37367;SDS011;23240;43.210;27.910;2022-09-17T05:36:07;61.35;;;34.33;;
37367;SDS011;23240;43.210;27.910;2022-09-17T05:38:33;64.25;;;36.97;;
37367;SDS011;23240;43.210;27.910;2022-09-17T05:41:02;74.03;;;39.35;;
37367;SDS011;23240;43.210;27.910;2022-09-17T05:43:29;72.28;;;41.92;;
37367;SDS011;23240;43.210;27.910;2022-09-17T05:45:54;69.28;;;40.70;;
37367;SDS011;23240;43.210;27.910;2022-09-17T05:48:20;66.10;;;39.42;;
37367;SDS011;23240;43.210;27.910;2022-09-17T05:50:45;67.55;;;36.78;;
37367;SDS011;23240;43.210;27.910;2022-09-17T05:53:11;66.18;;;37.28;;
37367;SDS011;23240;43.210;27.910;2022-09-17T05:55:37;70.82;;;35.38;;
37367;SDS011;23240;43.210;27.910;2022-09-17T06:00:35;54.38;;;31.67;;
37367;SDS011;23240;43.210;27.910;2022-09-17T06:03:01;57.53;;;31.77;;
37367;SDS011;23240;43.210;27.910;2022-09-17T06:05:28;55.15;;;29.85;;
37367;SDS011;23240;43.210;27.910;2022-09-17T06:07:53;54.30;;;29.08;;
37367;SDS011;23240;43.210;27.910;2022-09-17T06:10:19;50.20;;;28.35;;
37367;SDS011;23240;43.210;27.910;2022-09-17T06:12:44;51.65;;;27.75;;
37367;SDS011;23240;43.210;27.910;2022-09-17T06:15:10;50.60;;;25.65;;
37367;SDS011;23240;43.210;27.910;2022-09-17T06:17:38;49.55;;;25.48;;
37367;SDS011;23240;43.210;27.910;2022-09-17T06:20:04;55.35;;;24.63;;
37367;SDS011;23240;43.210;27.910;2022-09-17T06:22:30;47.80;;;24.67;;
37367;SDS011;23240;43.210;27.910;2022-09-17T06:24:56;46.42;;;24.20;;
37367;SDS011;23240;43.210;27.910;2022-09-17T06:27:28;47.30;;;22.17;;
37367;SDS011;23240;43.210;27.910;2022-09-17T06:29:55;40.50;;;17.90;;
37367;SDS011;23240;43.210;27.910;2022-09-17T06:32:20;46.13;;;19.75;;
37367;SDS011;23240;43.210;27.910;2022-09-17T06:34:45;41.67;;;19.63;;
37367;SDS011;23240;43.210;27.910;2022-09-17T06:37:11;46.72;;;18.95;;
37367;SDS011;23240;43.210;27.910;2022-09-17T06:39:36;36.00;;;18.10;;
37367;SDS011;23240;43.210;27.910;2022-09-17T06:42:02;36.95;;;18.88;;
37367;SDS011;23240;43.210;27.910;2022-09-17T06:44:27;36.70;;;15.45;;
37367;SDS011;23240;43.210;27.910;2022-09-17T06:46:53;32.75;;;14.02;;
37367;SDS011;23240;43.210;27.910;2022-09-17T06:49:18;32.55;;;15.15;;
37367;SDS011;23240;43.210;27.910;2022-09-17T06:51:44;27.55;;;12.82;;
37367;SDS011;23240;43.210;27.910;2022-09-17T06:54:09;31.58;;;12.00;;
37367;SDS011;23240;43.210;27.910;2022-09-17T06:56:36;24.30;;;11.07;;
37367;SDS011;23240;43.210;27.910;2022-09-17T06:59:02;28.27;;;11.98;;
37367;SDS011;23240;43.210;27.910;2022-09-17T07:01:28;27.70;;;12.13;;
37367;SDS011;23240;43.210;27.910;2022-09-17T07:03:54;31.15;;;12.73;;
37367;SDS011;23240;43.210;27.910;2022-09-17T07:06:19;31.25;;;11.88;;
37367;SDS011;23240;43.210;27.910;2022-09-17T07:08:45;26.52;;;11.32;;
37367;SDS011;23240;43.210;27.910;2022-09-17T07:11:11;25.02;;;10.52;;
37367;SDS011;23240;43.210;27.910;2022-09-17T07:13:37;24.10;;;9.65;;
37367;SDS011;23240;43.210;27.910;2022-09-17T07:16:03;26.45;;;10.35;;
37367;SDS011;23240;43.210;27.910;2022-09-17T07:18:30;25.50;;;9.07;;
37367;SDS011;23240;43.210;27.910;2022-09-17T07:20:58;39.88;;;9.95;;
37367;SDS011;23240;43.210;27.910;2022-09-17T07:23:28;27.77;;;9.85;;
37367;SDS011;23240;43.210;27.910;2022-09-17T07:25:56;27.35;;;9.52;;
37367;SDS011;23240;43.210;27.910;2022-09-17T07:28:23;24.10;;;8.45;;
37367;SDS011;23240;43.210;27.910;2022-09-17T07:30:50;18.80;;;6.15;;
37367;SDS011;23240;43.210;27.910;2022-09-17T07:33:17;20.95;;;5.60;;
37367;SDS011;23240;43.210;27.910;2022-09-17T07:38:42;17.60;;;5.18;;
37367;SDS011;23240;43.210;27.910;2022-09-17T07:41:12;18.20;;;5.43;;
37367;SDS011;23240;43.210;27.910;2022-09-17T07:43:39;24.10;;;10.65;;
37367;SDS011;23240;43.210;27.910;2022-09-17T07:46:06;22.77;;;7.53;;
37367;SDS011;23240;43.210;27.910;2022-09-17T07:48:34;19.52;;;5.85;;
37367;SDS011;23240;43.210;27.910;2022-09-17T07:50:59;17.70;;;4.43;;
37367;SDS011;23240;43.210;27.910;2022-09-17T07:53:25;16.35;;;5.13;;
37367;SDS011;23240;43.210;27.910;2022-09-17T07:55:52;21.67;;;5.15;;
37367;SDS011;23240;43.210;27.910;2022-09-17T07:58:17;18.25;;;4.97;;
37367;SDS011;23240;43.210;27.910;2022-09-17T08:00:43;15.65;;;4.82;;
37367;SDS011;23240;43.210;27.910;2022-09-17T08:03:08;14.95;;;4.85;;
37367;SDS011;23240;43.210;27.910;2022-09-17T08:05:34;16.63;;;5.00;;
37367;SDS011;23240;43.210;27.910;2022-09-17T08:07:59;16.83;;;5.20;;
37367;SDS011;23240;43.210;27.910;2022-09-17T08:10:25;16.48;;;5.28;;
37367;SDS011;23240;43.210;27.910;2022-09-17T08:12:54;20.58;;;7.95;;
37367;SDS011;23240;43.210;27.910;2022-09-17T08:15:21;22.10;;;7.20;;
37367;SDS011;23240;43.210;27.910;2022-09-17T08:17:47;20.50;;;5.68;;
37367;SDS011;23240;43.210;27.910;2022-09-17T08:20:13;20.52;;;5.57;;
37367;SDS011;23240;43.210;27.910;2022-09-17T08:22:40;19.13;;;6.07;;
37367;SDS011;23240;43.210;27.910;2022-09-17T08:25:07;17.35;;;5.40;;
37367;SDS011;23240;43.210;27.910;2022-09-17T08:27:34;18.77;;;4.97;;
37367;SDS011;23240;43.210;27.910;2022-09-17T08:29:59;16.55;;;5.03;;
37367;SDS011;23240;43.210;27.910;2022-09-17T08:32:27;17.25;;;4.93;;
37367;SDS011;23240;43.210;27.910;2022-09-17T08:34:54;22.75;;;7.22;;
37367;SDS011;23240;43.210;27.910;2022-09-17T08:37:19;20.70;;;7.43;;
37367;SDS011;23240;43.210;27.910;2022-09-17T08:39:45;17.15;;;5.25;;
37367;SDS011;23240;43.210;27.910;2022-09-17T08:44:56;14.55;;;4.75;;
37367;SDS011;23240;43.210;27.910;2022-09-17T08:49:55;15.00;;;5.22;;
37367;SDS011;23240;43.210;27.910;2022-09-17T08:55:26;22.23;;;7.45;;
37367;SDS011;23240;43.210;27.910;2022-09-17T09:01:37;17.65;;;5.00;;
37367;SDS011;23240;43.210;27.910;2022-09-17T09:06:45;19.77;;;5.43;;
37367;SDS011;23240;43.210;27.910;2022-09-17T09:09:16;21.83;;;5.20;;
37367;SDS011;23240;43.210;27.910;2022-09-17T09:11:45;16.27;;;4.60;;
37367;SDS011;23240;43.210;27.910;2022-09-17T09:14:26;20.20;;;5.22;;
37367;SDS011;23240;43.210;27.910;2022-09-17T09:16:57;17.27;;;4.95;;
37367;SDS011;23240;43.210;27.910;2022-09-17T09:19:32;17.05;;;5.40;;
37367;SDS011;23240;43.210;27.910;2022-09-17T09:24:52;22.73;;;5.53;;
37367;SDS011;23240;43.210;27.910;2022-09-17T09:27:32;15.85;;;4.93;;
37367;SDS011;23240;43.210;27.910;2022-09-17T09:30:09;16.63;;;5.68;;
37367;SDS011;23240;43.210;27.910;2022-09-17T09:35:36;21.90;;;8.52;;
37367;SDS011;23240;43.210;27.910;2022-09-17T09:40:40;22.40;;;6.13;;
37367;SDS011;23240;43.210;27.910;2022-09-17T09:43:18;19.73;;;5.53;;
37367;SDS011;23240;43.210;27.910;2022-09-17T09:51:55;19.02;;;5.70;;
37367;SDS011;23240;43.210;27.910;2022-09-17T09:54:15;19.63;;;5.80;;
37367;SDS011;23240;43.210;27.910;2022-09-17T09:57:02;17.17;;;6.25;;
37367;SDS011;23240;43.210;27.910;2022-09-17T09:59:31;21.40;;;5.70;;
37367;SDS011;23240;43.210;27.910;2022-09-17T10:02:00;16.98;;;5.57;;
37367;SDS011;23240;43.210;27.910;2022-09-17T10:04:26;20.45;;;8.80;;
37367;SDS011;23240;43.210;27.910;2022-09-17T10:07:02;28.08;;;12.20;;
37367;SDS011;23240;43.210;27.910;2022-09-17T10:09:30;17.27;;;6.47;;
37367;SDS011;23240;43.210;27.910;2022-09-17T10:14:28;22.50;;;6.18;;
37367;SDS011;23240;43.210;27.910;2022-09-17T10:25:22;21.42;;;6.90;;
37367;SDS011;23240;43.210;27.910;2022-09-17T10:27:52;21.30;;;6.13;;
37367;SDS011;23240;43.210;27.910;2022-09-17T10:30:18;21.95;;;6.25;;
37367;SDS011;23240;43.210;27.910;2022-09-17T10:33:02;18.98;;;6.00;;
37367;SDS011;23240;43.210;27.910;2022-09-17T10:35:55;19.27;;;6.50;;
37367;SDS011;23240;43.210;27.910;2022-09-17T10:38:38;23.55;;;6.50;;
37367;SDS011;23240;43.210;27.910;2022-09-17T10:41:11;17.38;;;5.90;;
37367;SDS011;23240;43.210;27.910;2022-09-17T10:43:37;24.20;;;6.55;;
37367;SDS011;23240;43.210;27.910;2022-09-17T10:46:03;18.85;;;6.32;;
37367;SDS011;23240;43.210;27.910;2022-09-17T10:48:37;24.02;;;6.82;;
37367;SDS011;23240;43.210;27.910;2022-09-17T10:51:07;23.05;;;6.55;;
37367;SDS011;23240;43.210;27.910;2022-09-17T10:53:39;19.25;;;6.68;;
37367;SDS011;23240;43.210;27.910;2022-09-17T10:56:28;20.92;;;6.93;;
37367;SDS011;23240;43.210;27.910;2022-09-17T11:24:05;26.00;;;7.65;;
37367;SDS011;23240;43.210;27.910;2022-09-17T11:26:45;20.10;;;7.28;;
37367;SDS011;23240;43.210;27.910;2022-09-17T11:35:39;24.00;;;8.50;;
37367;SDS011;23240;43.210;27.910;2022-09-17T11:41:32;21.58;;;7.78;;
37367;SDS011;23240;43.210;27.910;2022-09-17T11:46:39;22.25;;;7.40;;
37367;SDS011;23240;43.210;27.910;2022-09-17T11:51:49;20.52;;;7.00;;
37367;SDS011;23240;43.210;27.910;2022-09-17T11:54:22;16.98;;;6.85;;
37367;SDS011;23240;43.210;27.910;2022-09-17T11:57:13;18.30;;;7.15;;
37367;SDS011;23240;43.210;27.910;2022-09-17T12:00:11;20.45;;;7.35;;
37367;SDS011;23240;43.210;27.910;2022-09-17T12:02:55;18.20;;;6.75;;
37367;SDS011;23240;43.210;27.910;2022-09-17T12:05:27;25.63;;;8.23;;
37367;SDS011;23240;43.210;27.910;2022-09-17T12:14:21;20.48;;;7.15;;
37367;SDS011;23240;43.210;27.910;2022-09-17T12:16:59;18.73;;;7.38;;
37367;SDS011;23240;43.210;27.910;2022-09-17T12:19:32;18.45;;;7.40;;
37367;SDS011;23240;43.210;27.910;2022-09-17T12:22:13;20.48;;;7.22;;
37367;SDS011;23240;43.210;27.910;2022-09-17T12:24:44;22.42;;;7.13;;
37367;SDS011;23240;43.210;27.910;2022-09-17T12:45:52;22.65;;;8.27;;
37367;SDS011;23240;43.210;27.910;2022-09-17T12:48:32;23.75;;;9.32;;
37367;SDS011;23240;43.210;27.910;2022-09-17T12:57:02;22.88;;;8.10;;
37367;SDS011;23240;43.210;27.910;2022-09-17T12:59:42;20.33;;;7.20;;
37367;SDS011;23240;43.210;27.910;2022-09-17T13:05:14;28.45;;;14.48;;
37367;SDS011;23240;43.210;27.910;2022-09-17T13:24:31;21.77;;;8.18;;
37367;SDS011;23240;43.210;27.910;2022-09-17T13:26:58;18.70;;;8.05;;
37367;SDS011;23240;43.210;27.910;2022-09-17T13:45:27;29.05;;;8.88;;
37367;SDS011;23240;43.210;27.910;2022-09-17T13:52:57;26.95;;;8.20;;
37367;SDS011;23240;43.210;27.910;2022-09-17T13:55:49;26.02;;;8.50;;
37367;SDS011;23240;43.210;27.910;2022-09-17T14:00:59;24.98;;;9.63;;
37367;SDS011;23240;43.210;27.910;2022-09-17T14:05:55;23.83;;;9.90;;
37367;SDS011;23240;43.210;27.910;2022-09-17T14:08:25;30.15;;;11.15;;
37367;SDS011;23240;43.210;27.910;2022-09-17T14:10:55;32.42;;;12.27;;
37367;SDS011;23240;43.210;27.910;2022-09-17T14:13:23;24.27;;;10.82;;
37367;SDS011;23240;43.210;27.910;2022-09-17T14:15:56;29.48;;;10.40;;
37367;SDS011;23240;43.210;27.910;2022-09-17T14:20:52;29.80;;;11.20;;
37367;SDS011;23240;43.210;27.910;2022-09-17T14:23:46;27.95;;;9.73;;
37367;SDS011;23240;43.210;27.910;2022-09-17T14:26:27;21.48;;;7.18;;
37367;SDS011;23240;43.210;27.910;2022-09-17T14:29:03;20.88;;;7.10;;
37367;SDS011;23240;43.210;27.910;2022-09-17T14:31:40;14.35;;;5.65;;
37367;SDS011;23240;43.210;27.910;2022-09-17T14:34:09;17.95;;;5.55;;
37367;SDS011;23240;43.210;27.910;2022-09-17T14:36:43;16.05;;;5.07;;
37367;SDS011;23240;43.210;27.910;2022-09-17T14:39:18;11.85;;;4.40;;
37367;SDS011;23240;43.210;27.910;2022-09-17T14:41:46;15.45;;;4.63;;
37367;SDS011;23240;43.210;27.910;2022-09-17T14:44:21;15.63;;;4.70;;
37367;SDS011;23240;43.210;27.910;2022-09-17T14:49:25;13.68;;;3.80;;
37367;SDS011;23240;43.210;27.910;2022-09-17T14:51:55;11.57;;;3.80;;
37367;SDS011;23240;43.210;27.910;2022-09-17T14:54:23;13.23;;;3.90;;
37367;SDS011;23240;43.210;27.910;2022-09-17T15:01:51;12.48;;;3.00;;
37367;SDS011;23240;43.210;27.910;2022-09-17T15:04:21;10.07;;;3.58;;
37367;SDS011;23240;43.210;27.910;2022-09-17T15:06:49;9.68;;;3.78;;
37367;SDS011;23240;43.210;27.910;2022-09-17T15:09:24;13.48;;;4.30;;
37367;SDS011;23240;43.210;27.910;2022-09-17T15:11:55;14.88;;;4.53;;
37367;SDS011;23240;43.210;27.910;2022-09-17T15:14:27;11.18;;;4.78;;
37367;SDS011;23240;43.210;27.910;2022-09-17T15:16:55;11.88;;;4.85;;
37367;SDS011;23240;43.210;27.910;2022-09-17T15:19:25;12.20;;;4.35;;
37367;SDS011;23240;43.210;27.910;2022-09-17T15:21:57;15.75;;;4.30;;
37367;SDS011;23240;43.210;27.910;2022-09-17T15:26:50;12.77;;;4.30;;
37367;SDS011;23240;43.210;27.910;2022-09-17T15:29:20;11.57;;;4.28;;
37367;SDS011;23240;43.210;27.910;2022-09-17T15:31:51;10.45;;;4.47;;
37367;SDS011;23240;43.210;27.910;2022-09-17T15:34:16;9.07;;;4.13;;
37367;SDS011;23240;43.210;27.910;2022-09-17T15:39:28;11.80;;;4.00;;
37367;SDS011;23240;43.210;27.910;2022-09-17T15:41:56;11.52;;;4.05;;
37367;SDS011;23240;43.210;27.910;2022-09-17T15:44:22;14.45;;;4.07;;
37367;SDS011;23240;43.210;27.910;2022-09-17T15:46:50;12.73;;;3.60;;
37367;SDS011;23240;43.210;27.910;2022-09-17T15:49:30;11.13;;;3.53;;
37367;SDS011;23240;43.210;27.910;2022-09-17T15:52:18;13.35;;;3.58;;
37367;SDS011;23240;43.210;27.910;2022-09-17T15:54:44;17.42;;;4.75;;
37367;SDS011;23240;43.210;27.910;2022-09-17T15:57:10;14.80;;;4.32;;
37367;SDS011;23240;43.210;27.910;2022-09-17T15:59:39;20.13;;;5.88;;
37367;SDS011;23240;43.210;27.910;2022-09-17T16:02:08;21.25;;;7.55;;
37367;SDS011;23240;43.210;27.910;2022-09-17T16:04:52;31.58;;;12.18;;
37367;SDS011;23240;43.210;27.910;2022-09-17T16:07:35;29.98;;;9.32;;
37367;SDS011;23240;43.210;27.910;2022-09-17T16:10:03;22.83;;;6.82;;
37367;SDS011;23240;43.210;27.910;2022-09-17T16:12:29;19.60;;;5.15;;
37367;SDS011;23240;43.210;27.910;2022-09-17T16:14:55;22.35;;;6.40;;
37367;SDS011;23240;43.210;27.910;2022-09-17T16:19:52;21.65;;;6.70;;
37367;SDS011;23240;43.210;27.910;2022-09-17T16:22:20;22.83;;;7.55;;
37367;SDS011;23240;43.210;27.910;2022-09-17T16:24:45;36.08;;;14.70;;
37367;SDS011;23240;43.210;27.910;2022-09-17T16:27:18;25.33;;;10.93;;
37367;SDS011;23240;43.210;27.910;2022-09-17T16:29:46;33.28;;;13.30;;
37367;SDS011;23240;43.210;27.910;2022-09-17T16:32:13;23.10;;;8.05;;
37367;SDS011;23240;43.210;27.910;2022-09-17T16:34:39;25.85;;;9.05;;
37367;SDS011;23240;43.210;27.910;2022-09-17T16:37:04;26.48;;;9.00;;
37367;SDS011;23240;43.210;27.910;2022-09-17T16:39:30;23.60;;;7.25;;
37367;SDS011;23240;43.210;27.910;2022-09-17T16:41:55;21.02;;;8.57;;
37367;SDS011;23240;43.210;27.910;2022-09-17T16:44:21;21.60;;;6.60;;
37367;SDS011;23240;43.210;27.910;2022-09-17T16:46:46;24.08;;;9.57;;
37367;SDS011;23240;43.210;27.910;2022-09-17T16:49:15;20.25;;;6.68;;
37367;SDS011;23240;43.210;27.910;2022-09-17T16:51:40;19.65;;;6.88;;
37367;SDS011;23240;43.210;27.910;2022-09-17T16:54:06;20.00;;;7.07;;
37367;SDS011;23240;43.210;27.910;2022-09-17T16:56:32;21.27;;;7.32;;
37367;SDS011;23240;43.210;27.910;2022-09-17T16:58:57;25.50;;;8.80;;
37367;SDS011;23240;43.210;27.910;2022-09-17T17:01:23;26.15;;;8.02;;
37367;SDS011;23240;43.210;27.910;2022-09-17T17:03:51;27.67;;;8.55;;
37367;SDS011;23240;43.210;27.910;2022-09-17T17:06:18;24.27;;;8.73;;
37367;SDS011;23240;43.210;27.910;2022-09-17T17:08:45;24.33;;;8.95;;
37367;SDS011;23240;43.210;27.910;2022-09-17T17:11:11;22.27;;;9.23;;
37367;SDS011;23240;43.210;27.910;2022-09-17T17:13:36;28.10;;;10.57;;
37367;SDS011;23240;43.210;27.910;2022-09-17T17:16:06;30.73;;;11.95;;
37367;SDS011;23240;43.210;27.910;2022-09-17T17:18:32;33.88;;;13.07;;
37367;SDS011;23240;43.210;27.910;2022-09-17T17:21:07;34.17;;;16.77;;
37367;SDS011;23240;43.210;27.910;2022-09-17T17:23:34;37.83;;;19.23;;
37367;SDS011;23240;43.210;27.910;2022-09-17T17:26:00;34.28;;;17.33;;
37367;SDS011;23240;43.210;27.910;2022-09-17T17:28:29;39.08;;;17.40;;
37367;SDS011;23240;43.210;27.910;2022-09-17T17:30:56;38.50;;;18.05;;
37367;SDS011;23240;43.210;27.910;2022-09-17T17:33:22;32.65;;;17.00;;
37367;SDS011;23240;43.210;27.910;2022-09-17T17:35:47;35.75;;;17.50;;
37367;SDS011;23240;43.210;27.910;2022-09-17T17:38:15;37.67;;;17.30;;
37367;SDS011;23240;43.210;27.910;2022-09-17T17:40:41;34.35;;;16.80;;
37367;SDS011;23240;43.210;27.910;2022-09-17T17:43:08;31.20;;;17.17;;
37367;SDS011;23240;43.210;27.910;2022-09-17T17:45:33;34.25;;;16.48;;
37367;SDS011;23240;43.210;27.910;2022-09-17T17:47:59;42.60;;;16.38;;
37367;SDS011;23240;43.210;27.910;2022-09-17T17:50:25;34.00;;;16.38;;
37367;SDS011;23240;43.210;27.910;2022-09-17T17:52:52;29.90;;;14.23;;
37367;SDS011;23240;43.210;27.910;2022-09-17T17:55:18;31.92;;;16.15;;
37367;SDS011;23240;43.210;27.910;2022-09-17T17:57:44;31.30;;;15.25;;
37367;SDS011;23240;43.210;27.910;2022-09-17T18:00:10;36.50;;;14.82;;
37367;SDS011;23240;43.210;27.910;2022-09-17T18:02:36;34.47;;;14.73;;
37367;SDS011;23240;43.210;27.910;2022-09-17T18:05:02;33.35;;;13.80;;
37367;SDS011;23240;43.210;27.910;2022-09-17T18:07:27;30.58;;;13.57;;
37367;SDS011;23240;43.210;27.910;2022-09-17T18:09:53;32.25;;;13.48;;
37367;SDS011;23240;43.210;27.910;2022-09-17T18:12:18;29.27;;;12.65;;
37367;SDS011;23240;43.210;27.910;2022-09-17T18:14:44;28.35;;;13.40;;